Onward, Mississippi
Current Conditions -  °F | °C
As of 9:53 PM on Wednesday 28 Jan 2015 (Local Time) from KTVR Reporting Station
Clear Clear  
Wind Chill: 55°   Ceiling: Unl
Heat Index: 55°   Visibility: 10mi
Dew Point: 41°   Wind: 7mph
Humidity: 59%   Direction: 180°S
Pressure: 30.17"   Gusts: NA
Location:  32.8112°N, 90.8327°W
Report Text: KTVR 290353Z AUTO 18006KT 10SM CLR 13/05 A3017 RMK AO2 SLP223 T01280050
Loading
Personal Weather Stations






























Interactive Weather Map New forecast layout! Learn more

10-Day Weather Forecast

Advertisements
Track Severe Weather on mobile